sensor_id;sensor_type;location;lat;lon;timestamp;P1;durP1;ratioP1;P2;durP2;ratioP2
43706;SDS011;61348;53.392;-6.248;2023-01-28T00:00:52;18.33;;;6.45;;
43706;SDS011;61348;53.392;-6.248;2023-01-28T00:03:19;14.55;;;6.20;;
43706;SDS011;61348;53.392;-6.248;2023-01-28T00:05:47;10.30;;;5.28;;
43706;SDS011;61348;53.392;-6.248;2023-01-28T00:08:13;12.40;;;5.97;;
43706;SDS011;61348;53.392;-6.248;2023-01-28T00:10:40;15.20;;;6.03;;
43706;SDS011;61348;53.392;-6.248;2023-01-28T00:13:11;10.55;;;5.43;;
43706;SDS011;61348;53.392;-6.248;2023-01-28T00:15:40;12.32;;;5.88;;
43706;SDS011;61348;53.392;-6.248;2023-01-28T00:18:07;21.35;;;6.07;;
43706;SDS011;61348;53.392;-6.248;2023-01-28T00:20:34;10.02;;;4.72;;
43706;SDS011;61348;53.392;-6.248;2023-01-28T00:23:01;11.65;;;5.00;;
43706;SDS011;61348;53.392;-6.248;2023-01-28T00:25:28;21.73;;;5.53;;
43706;SDS011;61348;53.392;-6.248;2023-01-28T00:27:54;15.68;;;4.80;;
43706;SDS011;61348;53.392;-6.248;2023-01-28T00:30:21;8.60;;;4.72;;
43706;SDS011;61348;53.392;-6.248;2023-01-28T00:32:48;8.27;;;3.83;;
43706;SDS011;61348;53.392;-6.248;2023-01-28T00:35:15;16.48;;;4.57;;
43706;SDS011;61348;53.392;-6.248;2023-01-28T00:37:44;11.88;;;4.63;;
43706;SDS011;61348;53.392;-6.248;2023-01-28T00:40:11;12.82;;;4.38;;
43706;SDS011;61348;53.392;-6.248;2023-01-28T00:42:38;12.80;;;4.05;;
43706;SDS011;61348;53.392;-6.248;2023-01-28T00:45:05;11.27;;;3.60;;
43706;SDS011;61348;53.392;-6.248;2023-01-28T00:47:32;11.50;;;4.43;;
43706;SDS011;61348;53.392;-6.248;2023-01-28T00:49:58;9.07;;;3.63;;
43706;SDS011;61348;53.392;-6.248;2023-01-28T00:52:25;15.07;;;4.20;;
43706;SDS011;61348;53.392;-6.248;2023-01-28T00:54:52;18.73;;;4.30;;
43706;SDS011;61348;53.392;-6.248;2023-01-28T00:57:19;17.00;;;3.83;;
43706;SDS011;61348;53.392;-6.248;2023-01-28T00:59:46;10.38;;;3.58;;
43706;SDS011;61348;53.392;-6.248;2023-01-28T01:02:12;11.50;;;3.55;;
43706;SDS011;61348;53.392;-6.248;2023-01-28T01:04:39;8.90;;;3.17;;
43706;SDS011;61348;53.392;-6.248;2023-01-28T01:07:06;10.75;;;3.78;;
43706;SDS011;61348;53.392;-6.248;2023-01-28T01:09:33;10.63;;;3.42;;
43706;SDS011;61348;53.392;-6.248;2023-01-28T01:12:00;13.95;;;3.38;;
43706;SDS011;61348;53.392;-6.248;2023-01-28T01:14:26;8.27;;;2.38;;
43706;SDS011;61348;53.392;-6.248;2023-01-28T01:16:53;13.00;;;3.03;;
43706;SDS011;61348;53.392;-6.248;2023-01-28T01:19:20;10.43;;;4.10;;
43706;SDS011;61348;53.392;-6.248;2023-01-28T01:21:46;12.32;;;2.53;;
43706;SDS011;61348;53.392;-6.248;2023-01-28T01:24:16;9.57;;;3.35;;
43706;SDS011;61348;53.392;-6.248;2023-01-28T01:26:43;10.32;;;2.88;;
43706;SDS011;61348;53.392;-6.248;2023-01-28T01:29:10;7.43;;;2.30;;
43706;SDS011;61348;53.392;-6.248;2023-01-28T01:31:36;11.40;;;2.78;;
43706;SDS011;61348;53.392;-6.248;2023-01-28T01:34:03;10.65;;;2.63;;
43706;SDS011;61348;53.392;-6.248;2023-01-28T01:36:30;14.40;;;2.53;;
43706;SDS011;61348;53.392;-6.248;2023-01-28T01:38:57;6.40;;;2.40;;
43706;SDS011;61348;53.392;-6.248;2023-01-28T01:43:55;12.10;;;3.08;;
43706;SDS011;61348;53.392;-6.248;2023-01-28T01:49:14;8.57;;;2.20;;
43706;SDS011;61348;53.392;-6.248;2023-01-28T01:51:50;9.23;;;2.97;;
43706;SDS011;61348;53.392;-6.248;2023-01-28T01:54:20;9.27;;;2.35;;
43706;SDS011;61348;53.392;-6.248;2023-01-28T01:56:51;10.93;;;2.33;;
43706;SDS011;61348;53.392;-6.248;2023-01-28T01:59:23;10.88;;;3.53;;
43706;SDS011;61348;53.392;-6.248;2023-01-28T02:01:53;14.50;;;2.33;;
43706;SDS011;61348;53.392;-6.248;2023-01-28T02:04:30;5.28;;;1.98;;
43706;SDS011;61348;53.392;-6.248;2023-01-28T02:07:01;7.10;;;2.70;;
43706;SDS011;61348;53.392;-6.248;2023-01-28T02:09:29;8.45;;;2.10;;
43706;SDS011;61348;53.392;-6.248;2023-01-28T02:11:59;10.65;;;3.80;;
43706;SDS011;61348;53.392;-6.248;2023-01-28T02:14:34;7.03;;;2.00;;
43706;SDS011;61348;53.392;-6.248;2023-01-28T02:17:07;11.50;;;2.58;;
43706;SDS011;61348;53.392;-6.248;2023-01-28T02:19:45;8.70;;;2.25;;
43706;SDS011;61348;53.392;-6.248;2023-01-28T02:31:10;8.55;;;2.30;;
43706;SDS011;61348;53.392;-6.248;2023-01-28T02:37:01;9.02;;;2.15;;
43706;SDS011;61348;53.392;-6.248;2023-01-28T02:39:34;10.52;;;2.97;;
43706;SDS011;61348;53.392;-6.248;2023-01-28T02:44:43;10.05;;;2.15;;
43706;SDS011;61348;53.392;-6.248;2023-01-28T02:47:10;11.38;;;2.65;;
43706;SDS011;61348;53.392;-6.248;2023-01-28T02:49:57;8.77;;;2.00;;
43706;SDS011;61348;53.392;-6.248;2023-01-28T02:55:29;4.30;;;1.95;;
43706;SDS011;61348;53.392;-6.248;2023-01-28T03:04:29;8.63;;;2.72;;
43706;SDS011;61348;53.392;-6.248;2023-01-28T03:07:01;8.68;;;2.40;;
43706;SDS011;61348;53.392;-6.248;2023-01-28T03:09:32;13.18;;;2.63;;
43706;SDS011;61348;53.392;-6.248;2023-01-28T03:14:52;8.98;;;2.28;;
43706;SDS011;61348;53.392;-6.248;2023-01-28T03:17:43;6.38;;;2.15;;
43706;SDS011;61348;53.392;-6.248;2023-01-28T03:26:47;10.88;;;2.67;;
43706;SDS011;61348;53.392;-6.248;2023-01-28T03:29:55;10.73;;;1.90;;
43706;SDS011;61348;53.392;-6.248;2023-01-28T03:32:44;4.35;;;2.13;;
43706;SDS011;61348;53.392;-6.248;2023-01-28T03:35:30;14.07;;;2.90;;
43706;SDS011;61348;53.392;-6.248;2023-01-28T03:38:18;7.65;;;3.28;;
43706;SDS011;61348;53.392;-6.248;2023-01-28T03:40:54;9.15;;;2.95;;
43706;SDS011;61348;53.392;-6.248;2023-01-28T03:43:22;9.10;;;3.13;;
43706;SDS011;61348;53.392;-6.248;2023-01-28T03:45:49;6.60;;;2.45;;
43706;SDS011;61348;53.392;-6.248;2023-01-28T03:48:20;15.75;;;2.42;;
43706;SDS011;61348;53.392;-6.248;2023-01-28T03:50:51;12.68;;;3.40;;
43706;SDS011;61348;53.392;-6.248;2023-01-28T03:53:18;11.60;;;3.45;;
43706;SDS011;61348;53.392;-6.248;2023-01-28T03:55:46;11.70;;;3.53;;
43706;SDS011;61348;53.392;-6.248;2023-01-28T03:58:15;9.32;;;2.40;;
43706;SDS011;61348;53.392;-6.248;2023-01-28T04:00:42;17.35;;;2.95;;
43706;SDS011;61348;53.392;-6.248;2023-01-28T04:03:13;13.90;;;2.60;;
43706;SDS011;61348;53.392;-6.248;2023-01-28T04:05:46;10.48;;;2.67;;
43706;SDS011;61348;53.392;-6.248;2023-01-28T04:08:27;6.78;;;2.28;;
43706;SDS011;61348;53.392;-6.248;2023-01-28T04:10:54;11.18;;;3.65;;
43706;SDS011;61348;53.392;-6.248;2023-01-28T04:13:21;8.68;;;2.65;;
43706;SDS011;61348;53.392;-6.248;2023-01-28T04:15:48;7.10;;;2.78;;
43706;SDS011;61348;53.392;-6.248;2023-01-28T04:18:15;15.77;;;2.88;;
43706;SDS011;61348;53.392;-6.248;2023-01-28T04:20:41;7.97;;;2.70;;
43706;SDS011;61348;53.392;-6.248;2023-01-28T04:23:08;5.05;;;2.85;;
43706;SDS011;61348;53.392;-6.248;2023-01-28T04:25:35;8.18;;;3.08;;
43706;SDS011;61348;53.392;-6.248;2023-01-28T04:28:01;8.07;;;2.40;;
43706;SDS011;61348;53.392;-6.248;2023-01-28T04:30:28;6.78;;;2.63;;
43706;SDS011;61348;53.392;-6.248;2023-01-28T04:32:55;10.77;;;4.68;;
43706;SDS011;61348;53.392;-6.248;2023-01-28T04:35:21;8.32;;;3.55;;
43706;SDS011;61348;53.392;-6.248;2023-01-28T04:37:48;6.88;;;2.53;;
43706;SDS011;61348;53.392;-6.248;2023-01-28T04:40:15;6.13;;;2.08;;
43706;SDS011;61348;53.392;-6.248;2023-01-28T04:42:42;8.10;;;2.25;;
43706;SDS011;61348;53.392;-6.248;2023-01-28T04:45:08;8.95;;;2.47;;
43706;SDS011;61348;53.392;-6.248;2023-01-28T04:47:35;6.15;;;2.80;;
43706;SDS011;61348;53.392;-6.248;2023-01-28T04:50:02;16.08;;;2.72;;
43706;SDS011;61348;53.392;-6.248;2023-01-28T04:52:29;7.80;;;2.13;;
43706;SDS011;61348;53.392;-6.248;2023-01-28T04:54:56;10.18;;;3.45;;
43706;SDS011;61348;53.392;-6.248;2023-01-28T04:57:22;11.00;;;3.25;;
43706;SDS011;61348;53.392;-6.248;2023-01-28T04:59:49;10.82;;;2.83;;
43706;SDS011;61348;53.392;-6.248;2023-01-28T05:02:16;12.55;;;3.92;;
43706;SDS011;61348;53.392;-6.248;2023-01-28T05:04:44;7.65;;;3.47;;
43706;SDS011;61348;53.392;-6.248;2023-01-28T05:07:12;9.05;;;3.47;;
43706;SDS011;61348;53.392;-6.248;2023-01-28T05:09:38;8.20;;;4.15;;
43706;SDS011;61348;53.392;-6.248;2023-01-28T05:12:05;11.43;;;3.45;;
43706;SDS011;61348;53.392;-6.248;2023-01-28T05:14:32;12.75;;;3.80;;
43706;SDS011;61348;53.392;-6.248;2023-01-28T05:16:58;12.60;;;2.75;;
43706;SDS011;61348;53.392;-6.248;2023-01-28T05:19:25;10.93;;;2.55;;
43706;SDS011;61348;53.392;-6.248;2023-01-28T05:21:52;5.25;;;2.40;;
43706;SDS011;61348;53.392;-6.248;2023-01-28T05:24:19;10.20;;;2.58;;
43706;SDS011;61348;53.392;-6.248;2023-01-28T05:26:46;10.02;;;2.97;;
43706;SDS011;61348;53.392;-6.248;2023-01-28T05:29:13;10.63;;;3.30;;
43706;SDS011;61348;53.392;-6.248;2023-01-28T05:31:40;6.85;;;3.38;;
43706;SDS011;61348;53.392;-6.248;2023-01-28T05:34:06;6.70;;;3.40;;
43706;SDS011;61348;53.392;-6.248;2023-01-28T05:36:33;10.50;;;4.10;;
43706;SDS011;61348;53.392;-6.248;2023-01-28T05:39:00;10.05;;;3.30;;
43706;SDS011;61348;53.392;-6.248;2023-01-28T05:41:27;9.23;;;2.90;;
43706;SDS011;61348;53.392;-6.248;2023-01-28T05:43:53;11.70;;;3.58;;
43706;SDS011;61348;53.392;-6.248;2023-01-28T05:46:20;9.90;;;3.55;;
43706;SDS011;61348;53.392;-6.248;2023-01-28T05:48:46;13.65;;;3.95;;
43706;SDS011;61348;53.392;-6.248;2023-01-28T05:51:13;11.00;;;3.70;;
43706;SDS011;61348;53.392;-6.248;2023-01-28T05:53:40;9.02;;;3.58;;
43706;SDS011;61348;53.392;-6.248;2023-01-28T05:56:07;11.63;;;3.42;;
43706;SDS011;61348;53.392;-6.248;2023-01-28T05:58:34;16.20;;;4.47;;
43706;SDS011;61348;53.392;-6.248;2023-01-28T06:01:00;18.17;;;4.57;;
43706;SDS011;61348;53.392;-6.248;2023-01-28T06:03:27;14.25;;;4.32;;
43706;SDS011;61348;53.392;-6.248;2023-01-28T06:05:54;15.10;;;5.05;;
43706;SDS011;61348;53.392;-6.248;2023-01-28T06:08:21;16.45;;;5.10;;
43706;SDS011;61348;53.392;-6.248;2023-01-28T06:10:47;18.45;;;5.35;;
43706;SDS011;61348;53.392;-6.248;2023-01-28T06:13:14;19.65;;;5.80;;
43706;SDS011;61348;53.392;-6.248;2023-01-28T06:15:40;16.90;;;5.65;;
43706;SDS011;61348;53.392;-6.248;2023-01-28T06:18:07;17.70;;;6.10;;
43706;SDS011;61348;53.392;-6.248;2023-01-28T06:20:34;18.45;;;5.55;;
43706;SDS011;61348;53.392;-6.248;2023-01-28T06:23:00;16.30;;;4.97;;
43706;SDS011;61348;53.392;-6.248;2023-01-28T06:25:27;12.80;;;5.63;;
43706;SDS011;61348;53.392;-6.248;2023-01-28T06:27:54;18.40;;;6.32;;
43706;SDS011;61348;53.392;-6.248;2023-01-28T06:30:21;17.13;;;5.32;;
43706;SDS011;61348;53.392;-6.248;2023-01-28T06:32:52;20.30;;;6.28;;
43706;SDS011;61348;53.392;-6.248;2023-01-28T06:35:20;16.67;;;5.82;;
43706;SDS011;61348;53.392;-6.248;2023-01-28T06:37:47;18.58;;;7.28;;
43706;SDS011;61348;53.392;-6.248;2023-01-28T06:40:13;17.17;;;6.13;;
43706;SDS011;61348;53.392;-6.248;2023-01-28T06:42:40;14.30;;;5.40;;
43706;SDS011;61348;53.392;-6.248;2023-01-28T06:45:07;19.02;;;5.75;;
43706;SDS011;61348;53.392;-6.248;2023-01-28T06:47:34;14.20;;;5.32;;
43706;SDS011;61348;53.392;-6.248;2023-01-28T06:50:01;16.13;;;6.10;;
43706;SDS011;61348;53.392;-6.248;2023-01-28T06:52:27;22.98;;;7.25;;
43706;SDS011;61348;53.392;-6.248;2023-01-28T06:54:54;13.43;;;5.50;;
43706;SDS011;61348;53.392;-6.248;2023-01-28T06:57:21;14.20;;;4.75;;
43706;SDS011;61348;53.392;-6.248;2023-01-28T06:59:47;15.23;;;5.47;;
43706;SDS011;61348;53.392;-6.248;2023-01-28T07:02:14;15.63;;;4.93;;
43706;SDS011;61348;53.392;-6.248;2023-01-28T07:04:41;14.00;;;5.75;;
43706;SDS011;61348;53.392;-6.248;2023-01-28T07:07:07;15.93;;;5.50;;
43706;SDS011;61348;53.392;-6.248;2023-01-28T07:09:34;13.48;;;5.15;;
43706;SDS011;61348;53.392;-6.248;2023-01-28T07:12:01;16.65;;;5.75;;
43706;SDS011;61348;53.392;-6.248;2023-01-28T07:14:30;9.35;;;4.65;;
43706;SDS011;61348;53.392;-6.248;2023-01-28T07:16:57;14.52;;;5.82;;
43706;SDS011;61348;53.392;-6.248;2023-01-28T07:19:24;12.48;;;5.82;;
43706;SDS011;61348;53.392;-6.248;2023-01-28T07:21:50;12.90;;;4.95;;
43706;SDS011;61348;53.392;-6.248;2023-01-28T07:24:17;10.18;;;5.57;;
43706;SDS011;61348;53.392;-6.248;2023-01-28T07:26:44;13.95;;;5.75;;
43706;SDS011;61348;53.392;-6.248;2023-01-28T07:29:13;11.82;;;5.35;;
43706;SDS011;61348;53.392;-6.248;2023-01-28T07:31:39;12.45;;;5.53;;
43706;SDS011;61348;53.392;-6.248;2023-01-28T07:34:07;16.98;;;5.45;;
43706;SDS011;61348;53.392;-6.248;2023-01-28T07:36:34;11.15;;;5.32;;
43706;SDS011;61348;53.392;-6.248;2023-01-28T07:39:01;12.30;;;5.45;;
43706;SDS011;61348;53.392;-6.248;2023-01-28T07:41:28;12.07;;;5.40;;
43706;SDS011;61348;53.392;-6.248;2023-01-28T07:43:54;10.63;;;5.68;;
43706;SDS011;61348;53.392;-6.248;2023-01-28T07:46:21;16.33;;;5.35;;
43706;SDS011;61348;53.392;-6.248;2023-01-28T07:48:48;18.85;;;5.47;;
43706;SDS011;61348;53.392;-6.248;2023-01-28T07:51:14;13.70;;;5.43;;
43706;SDS011;61348;53.392;-6.248;2023-01-28T07:53:41;14.40;;;5.22;;
43706;SDS011;61348;53.392;-6.248;2023-01-28T07:56:08;11.95;;;5.18;;
43706;SDS011;61348;53.392;-6.248;2023-01-28T07:58:35;9.98;;;5.43;;
43706;SDS011;61348;53.392;-6.248;2023-01-28T08:01:01;12.10;;;5.10;;
43706;SDS011;61348;53.392;-6.248;2023-01-28T08:03:28;15.25;;;4.97;;
43706;SDS011;61348;53.392;-6.248;2023-01-28T08:05:56;10.27;;;5.60;;
43706;SDS011;61348;53.392;-6.248;2023-01-28T08:08:24;11.65;;;4.78;;
43706;SDS011;61348;53.392;-6.248;2023-01-28T08:10:52;7.88;;;4.68;;
43706;SDS011;61348;53.392;-6.248;2023-01-28T08:13:19;9.60;;;4.57;;
43706;SDS011;61348;53.392;-6.248;2023-01-28T08:15:46;11.15;;;4.68;;
43706;SDS011;61348;53.392;-6.248;2023-01-28T08:18:14;12.50;;;4.50;;
43706;SDS011;61348;53.392;-6.248;2023-01-28T08:20:42;11.52;;;4.85;;
43706;SDS011;61348;53.392;-6.248;2023-01-28T08:23:10;12.70;;;5.38;;
43706;SDS011;61348;53.392;-6.248;2023-01-28T08:25:42;8.45;;;5.07;;
43706;SDS011;61348;53.392;-6.248;2023-01-28T08:28:09;12.27;;;5.30;;
43706;SDS011;61348;53.392;-6.248;2023-01-28T08:30:36;16.75;;;4.80;;
43706;SDS011;61348;53.392;-6.248;2023-01-28T08:33:05;9.55;;;4.68;;
43706;SDS011;61348;53.392;-6.248;2023-01-28T08:35:33;12.07;;;4.80;;
43706;SDS011;61348;53.392;-6.248;2023-01-28T08:38:01;13.15;;;5.50;;
43706;SDS011;61348;53.392;-6.248;2023-01-28T08:40:29;9.68;;;4.30;;
43706;SDS011;61348;53.392;-6.248;2023-01-28T08:42:56;10.98;;;4.22;;
43706;SDS011;61348;53.392;-6.248;2023-01-28T08:45:24;7.43;;;4.45;;
43706;SDS011;61348;53.392;-6.248;2023-01-28T08:47:54;8.30;;;4.90;;
43706;SDS011;61348;53.392;-6.248;2023-01-28T08:50:23;11.38;;;4.43;;
43706;SDS011;61348;53.392;-6.248;2023-01-28T08:52:55;15.35;;;5.32;;
43706;SDS011;61348;53.392;-6.248;2023-01-28T08:55:23;11.02;;;5.38;;
43706;SDS011;61348;53.392;-6.248;2023-01-28T08:57:50;11.02;;;5.40;;
43706;SDS011;61348;53.392;-6.248;2023-01-28T09:00:17;9.82;;;4.03;;
43706;SDS011;61348;53.392;-6.248;2023-01-28T09:02:45;7.55;;;4.22;;
43706;SDS011;61348;53.392;-6.248;2023-01-28T09:05:12;10.38;;;4.68;;
43706;SDS011;61348;53.392;-6.248;2023-01-28T09:07:38;8.40;;;3.85;;
43706;SDS011;61348;53.392;-6.248;2023-01-28T09:10:05;7.82;;;3.38;;
43706;SDS011;61348;53.392;-6.248;2023-01-28T09:12:32;5.53;;;3.63;;
43706;SDS011;61348;53.392;-6.248;2023-01-28T09:14:59;5.43;;;3.20;;
43706;SDS011;61348;53.392;-6.248;2023-01-28T09:17:26;4.20;;;3.22;;
43706;SDS011;61348;53.392;-6.248;2023-01-28T09:19:53;7.28;;;3.13;;
43706;SDS011;61348;53.392;-6.248;2023-01-28T09:22:19;4.10;;;2.85;;
43706;SDS011;61348;53.392;-6.248;2023-01-28T09:24:46;5.78;;;3.10;;
43706;SDS011;61348;53.392;-6.248;2023-01-28T09:27:13;6.82;;;3.10;;
43706;SDS011;61348;53.392;-6.248;2023-01-28T09:29:39;4.82;;;3.55;;
43706;SDS011;61348;53.392;-6.248;2023-01-28T09:32:06;5.55;;;3.28;;
43706;SDS011;61348;53.392;-6.248;2023-01-28T09:34:33;4.57;;;2.80;;
43706;SDS011;61348;53.392;-6.248;2023-01-28T09:37:00;6.80;;;3.47;;
43706;SDS011;61348;53.392;-6.248;2023-01-28T09:39:27;8.07;;;4.10;;
43706;SDS011;61348;53.392;-6.248;2023-01-28T09:47:51;5.43;;;3.42;;
43706;SDS011;61348;53.392;-6.248;2023-01-28T09:50:22;8.15;;;3.33;;
43706;SDS011;61348;53.392;-6.248;2023-01-28T09:52:51;6.38;;;3.83;;
43706;SDS011;61348;53.392;-6.248;2023-01-28T09:55:33;4.80;;;3.50;;
43706;SDS011;61348;53.392;-6.248;2023-01-28T09:58:10;6.38;;;3.67;;
43706;SDS011;61348;53.392;-6.248;2023-01-28T10:19:01;5.93;;;4.25;;
43706;SDS011;61348;53.392;-6.248;2023-01-28T10:21:35;4.43;;;3.95;;
43706;SDS011;61348;53.392;-6.248;2023-01-28T10:26:47;6.28;;;4.15;;
43706;SDS011;61348;53.392;-6.248;2023-01-28T10:29:16;8.27;;;4.40;;
43706;SDS011;61348;53.392;-6.248;2023-01-28T10:31:56;7.45;;;3.75;;
43706;SDS011;61348;53.392;-6.248;2023-01-28T10:34:29;5.22;;;3.58;;
43706;SDS011;61348;53.392;-6.248;2023-01-28T10:36:56;5.32;;;4.25;;
43706;SDS011;61348;53.392;-6.248;2023-01-28T10:39:23;5.88;;;3.92;;
43706;SDS011;61348;53.392;-6.248;2023-01-28T10:41:51;5.72;;;3.65;;
43706;SDS011;61348;53.392;-6.248;2023-01-28T10:44:36;3.95;;;2.45;;
43706;SDS011;61348;53.392;-6.248;2023-01-28T10:47:09;3.45;;;2.38;;
43706;SDS011;61348;53.392;-6.248;2023-01-28T10:49:44;3.58;;;2.50;;
43706;SDS011;61348;53.392;-6.248;2023-01-28T10:52:17;4.57;;;2.85;;
43706;SDS011;61348;53.392;-6.248;2023-01-28T10:54:44;4.78;;;2.97;;
43706;SDS011;61348;53.392;-6.248;2023-01-28T10:57:15;4.28;;;2.70;;
43706;SDS011;61348;53.392;-6.248;2023-01-28T10:59:44;5.57;;;2.65;;
43706;SDS011;61348;53.392;-6.248;2023-01-28T11:04:59;2.63;;;2.33;;
43706;SDS011;61348;53.392;-6.248;2023-01-28T11:07:28;3.28;;;2.65;;
43706;SDS011;61348;53.392;-6.248;2023-01-28T11:09:54;4.07;;;2.33;;
43706;SDS011;61348;53.392;-6.248;2023-01-28T11:12:26;4.50;;;2.75;;
43706;SDS011;61348;53.392;-6.248;2023-01-28T11:17:26;2.67;;;2.10;;
43706;SDS011;61348;53.392;-6.248;2023-01-28T11:19:58;2.25;;;1.92;;
43706;SDS011;61348;53.392;-6.248;2023-01-28T11:25:15;3.60;;;2.08;;
43706;SDS011;61348;53.392;-6.248;2023-01-28T11:27:50;2.47;;;1.77;;
43706;SDS011;61348;53.392;-6.248;2023-01-28T11:30:23;3.47;;;3.17;;
43706;SDS011;61348;53.392;-6.248;2023-01-28T11:32:54;2.30;;;1.95;;
43706;SDS011;61348;53.392;-6.248;2023-01-28T11:35:29;4.05;;;2.05;;
43706;SDS011;61348;53.392;-6.248;2023-01-28T11:37:57;1.67;;;1.40;;
43706;SDS011;61348;53.392;-6.248;2023-01-28T11:40:24;4.13;;;3.00;;
43706;SDS011;61348;53.392;-6.248;2023-01-28T11:42:51;3.35;;;1.90;;
43706;SDS011;61348;53.392;-6.248;2023-01-28T11:45:57;2.65;;;2.42;;
43706;SDS011;61348;53.392;-6.248;2023-01-28T11:49:05;4.90;;;1.92;;
43706;SDS011;61348;53.392;-6.248;2023-01-28T11:51:23;3.35;;;2.28;;
43706;SDS011;61348;53.392;-6.248;2023-01-28T11:56:45;4.07;;;2.28;;
43706;SDS011;61348;53.392;-6.248;2023-01-28T12:07:37;3.90;;;3.00;;
43706;SDS011;61348;53.392;-6.248;2023-01-28T12:13:20;4.07;;;2.63;;
43706;SDS011;61348;53.392;-6.248;2023-01-28T12:23:30;5.45;;;3.80;;
43706;SDS011;61348;53.392;-6.248;2023-01-28T12:26:20;4.45;;;3.05;;
43706;SDS011;61348;53.392;-6.248;2023-01-28T12:28:59;3.83;;;2.78;;
43706;SDS011;61348;53.392;-6.248;2023-01-28T12:31:36;4.13;;;3.72;;
43706;SDS011;61348;53.392;-6.248;2023-01-28T12:36:58;4.28;;;2.95;;
43706;SDS011;61348;53.392;-6.248;2023-01-28T12:42:41;6.25;;;3.70;;
43706;SDS011;61348;53.392;-6.248;2023-01-28T12:48:23;5.38;;;3.90;;
43706;SDS011;61348;53.392;-6.248;2023-01-28T12:53:41;4.82;;;3.65;;
43706;SDS011;61348;53.392;-6.248;2023-01-28T12:56:28;6.55;;;3.70;;
43706;SDS011;61348;53.392;-6.248;2023-01-28T12:59:01;4.32;;;3.83;;
43706;SDS011;61348;53.392;-6.248;2023-01-28T13:06:54;5.13;;;4.50;;
43706;SDS011;61348;53.392;-6.248;2023-01-28T13:09:41;4.07;;;3.10;;
43706;SDS011;61348;53.392;-6.248;2023-01-28T13:12:15;3.85;;;3.42;;
43706;SDS011;61348;53.392;-6.248;2023-01-28T13:14:42;4.35;;;3.10;;
43706;SDS011;61348;53.392;-6.248;2023-01-28T13:17:29;5.22;;;3.50;;
43706;SDS011;61348;53.392;-6.248;2023-01-28T13:19:59;4.70;;;3.95;;
43706;SDS011;61348;53.392;-6.248;2023-01-28T13:22:30;7.35;;;5.57;;
43706;SDS011;61348;53.392;-6.248;2023-01-28T13:27:55;4.43;;;3.00;;
43706;SDS011;61348;53.392;-6.248;2023-01-28T13:32:55;4.63;;;2.67;;
43706;SDS011;61348;53.392;-6.248;2023-01-28T13:35:29;4.88;;;2.95;;
43706;SDS011;61348;53.392;-6.248;2023-01-28T13:37:57;4.25;;;3.72;;
43706;SDS011;61348;53.392;-6.248;2023-01-28T13:40:26;5.93;;;3.88;;
43706;SDS011;61348;53.392;-6.248;2023-01-28T13:43:01;5.35;;;3.60;;
43706;SDS011;61348;53.392;-6.248;2023-01-28T13:45:37;4.82;;;3.83;;
43706;SDS011;61348;53.392;-6.248;2023-01-28T13:48:13;5.82;;;4.47;;
43706;SDS011;61348;53.392;-6.248;2023-01-28T13:50:55;5.25;;;4.78;;
43706;SDS011;61348;53.392;-6.248;2023-01-28T13:53:27;6.75;;;4.22;;
43706;SDS011;61348;53.392;-6.248;2023-01-28T13:56:07;6.65;;;4.68;;
43706;SDS011;61348;53.392;-6.248;2023-01-28T13:58:49;4.95;;;4.35;;
43706;SDS011;61348;53.392;-6.248;2023-01-28T14:01:54;7.25;;;4.55;;
43706;SDS011;61348;53.392;-6.248;2023-01-28T14:15:48;7.72;;;5.63;;
43706;SDS011;61348;53.392;-6.248;2023-01-28T14:18:34;6.85;;;4.80;;
43706;SDS011;61348;53.392;-6.248;2023-01-28T14:21:08;6.30;;;5.00;;
43706;SDS011;61348;53.392;-6.248;2023-01-28T14:23:43;11.23;;;5.32;;
43706;SDS011;61348;53.392;-6.248;2023-01-28T14:29:01;6.32;;;4.93;;
43706;SDS011;61348;53.392;-6.248;2023-01-28T14:31:38;7.22;;;5.53;;
43706;SDS011;61348;53.392;-6.248;2023-01-28T14:34:09;6.38;;;4.53;;
43706;SDS011;61348;53.392;-6.248;2023-01-28T14:36:38;9.00;;;5.85;;
43706;SDS011;61348;53.392;-6.248;2023-01-28T14:39:19;7.53;;;5.70;;
43706;SDS011;61348;53.392;-6.248;2023-01-28T14:41:53;8.60;;;6.50;;
43706;SDS011;61348;53.392;-6.248;2023-01-28T14:47:08;9.55;;;6.93;;
43706;SDS011;61348;53.392;-6.248;2023-01-28T14:57:49;12.20;;;7.30;;
43706;SDS011;61348;53.392;-6.248;2023-01-28T15:00:30;10.38;;;6.70;;
43706;SDS011;61348;53.392;-6.248;2023-01-28T15:02:59;10.68;;;7.28;;
43706;SDS011;61348;53.392;-6.248;2023-01-28T15:05:29;13.30;;;7.97;;
43706;SDS011;61348;53.392;-6.248;2023-01-28T15:07:58;12.10;;;7.47;;
43706;SDS011;61348;53.392;-6.248;2023-01-28T15:10:25;15.35;;;9.32;;
43706;SDS011;61348;53.392;-6.248;2023-01-28T15:13:06;15.15;;;9.15;;
43706;SDS011;61348;53.392;-6.248;2023-01-28T15:15:36;18.45;;;10.50;;
43706;SDS011;61348;53.392;-6.248;2023-01-28T15:18:12;25.08;;;12.68;;
43706;SDS011;61348;53.392;-6.248;2023-01-28T15:20:44;24.95;;;12.88;;
43706;SDS011;61348;53.392;-6.248;2023-01-28T15:23:13;21.38;;;13.00;;
43706;SDS011;61348;53.392;-6.248;2023-01-28T15:28:34;22.65;;;12.90;;
43706;SDS011;61348;53.392;-6.248;2023-01-28T15:31:02;25.05;;;13.85;;
43706;SDS011;61348;53.392;-6.248;2023-01-28T15:33:29;25.10;;;13.73;;
43706;SDS011;61348;53.392;-6.248;2023-01-28T15:35:56;26.38;;;15.23;;
43706;SDS011;61348;53.392;-6.248;2023-01-28T15:38:25;28.33;;;14.25;;
43706;SDS011;61348;53.392;-6.248;2023-01-28T15:40:57;26.45;;;14.48;;
43706;SDS011;61348;53.392;-6.248;2023-01-28T15:43:26;23.95;;;14.82;;
43706;SDS011;61348;53.392;-6.248;2023-01-28T15:45:56;26.17;;;14.23;;
43706;SDS011;61348;53.392;-6.248;2023-01-28T15:48:25;27.08;;;14.98;;
43706;SDS011;61348;53.392;-6.248;2023-01-28T15:51:01;30.60;;;15.68;;
43706;SDS011;61348;53.392;-6.248;2023-01-28T15:53:42;27.88;;;15.40;;
43706;SDS011;61348;53.392;-6.248;2023-01-28T15:56:11;26.75;;;14.63;;
43706;SDS011;61348;53.392;-6.248;2023-01-28T15:58:41;25.20;;;15.10;;
43706;SDS011;61348;53.392;-6.248;2023-01-28T16:03:35;23.17;;;14.70;;
43706;SDS011;61348;53.392;-6.248;2023-01-28T16:08:41;25.33;;;15.25;;
43706;SDS011;61348;53.392;-6.248;2023-01-28T16:11:27;26.90;;;16.10;;
43706;SDS011;61348;53.392;-6.248;2023-01-28T16:13:58;27.70;;;17.70;;
43706;SDS011;61348;53.392;-6.248;2023-01-28T16:16:30;28.35;;;16.73;;
43706;SDS011;61348;53.392;-6.248;2023-01-28T16:19:01;35.67;;;20.20;;
43706;SDS011;61348;53.392;-6.248;2023-01-28T16:21:33;38.38;;;19.05;;
43706;SDS011;61348;53.392;-6.248;2023-01-28T16:24:04;38.47;;;19.13;;
43706;SDS011;61348;53.392;-6.248;2023-01-28T16:26:33;35.45;;;18.92;;
43706;SDS011;61348;53.392;-6.248;2023-01-28T16:29:14;36.33;;;20.55;;
43706;SDS011;61348;53.392;-6.248;2023-01-28T16:31:44;48.95;;;25.80;;
43706;SDS011;61348;53.392;-6.248;2023-01-28T16:34:11;61.45;;;29.95;;
43706;SDS011;61348;53.392;-6.248;2023-01-28T16:36:38;51.03;;;26.63;;
43706;SDS011;61348;53.392;-6.248;2023-01-28T16:39:04;56.00;;;27.08;;
43706;SDS011;61348;53.392;-6.248;2023-01-28T16:41:32;53.15;;;25.48;;
43706;SDS011;61348;53.392;-6.248;2023-01-28T16:44:03;53.70;;;27.85;;
43706;SDS011;61348;53.392;-6.248;2023-01-28T16:46:31;51.30;;;27.13;;
43706;SDS011;61348;53.392;-6.248;2023-01-28T16:49:01;49.72;;;24.48;;
43706;SDS011;61348;53.392;-6.248;2023-01-28T16:51:30;47.25;;;22.85;;
43706;SDS011;61348;53.392;-6.248;2023-01-28T16:53:57;51.80;;;25.08;;
43706;SDS011;61348;53.392;-6.248;2023-01-28T16:56:25;46.03;;;22.65;;
43706;SDS011;61348;53.392;-6.248;2023-01-28T16:59:11;48.22;;;23.23;;
43706;SDS011;61348;53.392;-6.248;2023-01-28T17:01:49;48.65;;;24.65;;
43706;SDS011;61348;53.392;-6.248;2023-01-28T17:04:17;49.22;;;23.40;;
43706;SDS011;61348;53.392;-6.248;2023-01-28T17:06:44;45.05;;;23.25;;
43706;SDS011;61348;53.392;-6.248;2023-01-28T17:09:22;44.28;;;22.35;;
43706;SDS011;61348;53.392;-6.248;2023-01-28T17:11:49;33.83;;;18.25;;
43706;SDS011;61348;53.392;-6.248;2023-01-28T17:14:16;30.05;;;17.35;;